createdAt,value
2018-04-02T00:00:17.161Z,6.2
2018-04-02T00:01:17.143Z,6.24
2018-04-02T00:02:17.153Z,6.22
2018-04-02T00:03:17.130Z,6.21
2018-04-02T00:04:17.141Z,6.22
2018-04-02T00:05:17.155Z,6.21
2018-04-02T00:06:17.178Z,6.2
2018-04-02T00:07:17.173Z,6.24
2018-04-02T00:08:17.119Z,6.25
2018-04-02T00:09:17.120Z,6.25
2018-04-02T00:10:17.128Z,6.25
2018-04-02T00:11:17.113Z,6.21
2018-04-02T00:12:17.217Z,6.2
2018-04-02T00:13:17.120Z,6.22
2018-04-02T00:14:17.156Z,6.23
2018-04-02T00:15:17.134Z,6.21
2018-04-02T00:16:17.117Z,6.22
2018-04-02T00:17:17.155Z,6.22
2018-04-02T00:18:17.123Z,6.23
2018-04-02T00:19:17.125Z,6.21
2018-04-02T00:20:17.242Z,6.23
2018-04-02T00:21:17.221Z,6.23
2018-04-02T00:22:17.142Z,6.24
2018-04-02T00:23:17.152Z,6.23
2018-04-02T00:24:17.136Z,6.23
2018-04-02T00:25:17.140Z,6.22
2018-04-02T00:26:17.134Z,6.22
2018-04-02T00:27:17.126Z,6.24
2018-04-02T00:28:17.151Z,6.19
2018-04-02T00:29:17.133Z,6.2
2018-04-02T00:30:17.167Z,6.23
2018-04-02T00:31:17.141Z,6.19
2018-04-02T00:32:17.137Z,6.24
2018-04-02T00:33:17.150Z,6.25
2018-04-02T00:34:17.125Z,6.23
2018-04-02T00:35:17.161Z,6.18
2018-04-02T00:36:17.136Z,6.21
2018-04-02T00:37:17.154Z,6.19
2018-04-02T00:38:17.152Z,6.16
2018-04-02T00:39:17.133Z,6.23
2018-04-02T00:40:17.138Z,6.22
2018-04-02T00:41:17.145Z,6.21
2018-04-02T00:42:17.187Z,6.21
2018-04-02T00:43:17.143Z,6.25
2018-04-02T00:44:17.133Z,6.24
2018-04-02T00:45:17.138Z,6.25
2018-04-02T00:46:17.143Z,6.28
2018-04-02T00:47:17.149Z,6.25
2018-04-02T00:48:17.165Z,6.22
2018-04-02T00:49:17.173Z,6.23
2018-04-02T00:50:17.141Z,6.21
2018-04-02T00:51:17.242Z,6.24
2018-04-02T00:52:17.144Z,6.26
2018-04-02T00:53:17.164Z,6.24
2018-04-02T00:54:17.141Z,6.23
2018-04-02T00:55:17.136Z,6.25
2018-04-02T00:56:17.151Z,6.26
2018-04-02T00:57:17.150Z,6.26
2018-04-02T00:58:17.157Z,6.26
2018-04-02T00:59:17.164Z,6.25
2018-04-02T01:00:17.134Z,6.27
2018-04-02T01:01:17.142Z,6.27
2018-04-02T01:02:17.143Z,6.29
2018-04-02T01:03:17.181Z,6.28
2018-04-02T01:04:17.138Z,6.28
2018-04-02T01:05:17.421Z,6.26
2018-04-02T01:06:17.157Z,6.24
2018-04-02T01:07:17.156Z,6.24
2018-04-02T01:08:17.163Z,6.24
2018-04-02T01:09:17.160Z,6.23
2018-04-02T01:10:17.169Z,6.23
2018-04-02T01:11:17.144Z,6.22
2018-04-02T01:12:17.195Z,6.24
2018-04-02T01:13:17.362Z,6.23
2018-04-02T01:14:17.157Z,6.21
2018-04-02T01:15:17.139Z,6.23
2018-04-02T01:16:17.156Z,6.23
2018-04-02T01:17:17.144Z,6.26
2018-04-02T01:18:17.203Z,6.26
2018-04-02T01:19:17.166Z,6.25
2018-04-02T01:20:17.177Z,6.22
2018-04-02T01:21:17.182Z,6.19
2018-04-02T01:22:17.252Z,6.18
2018-04-02T01:23:17.173Z,6.19
2018-04-02T01:24:17.162Z,6.2
2018-04-02T01:25:17.150Z,6.18
2018-04-02T01:26:17.146Z,6.18
2018-04-02T01:27:17.141Z,6.19
2018-04-02T01:28:17.156Z,6.17
2018-04-02T01:29:17.147Z,6.23
2018-04-02T01:30:17.200Z,6.18
2018-04-02T01:31:17.162Z,6.18
2018-04-02T01:32:17.154Z,6.22
2018-04-02T01:33:17.139Z,6.18
2018-04-02T01:34:17.224Z,6.17
2018-04-02T01:35:17.150Z,6.2
2018-04-02T01:36:17.157Z,6.22
2018-04-02T01:37:17.179Z,6.19
2018-04-02T01:38:17.167Z,6.21
2018-04-02T01:39:17.168Z,6.19
2018-04-02T01:40:17.171Z,6.17
2018-04-02T01:41:17.172Z,6.19
2018-04-02T01:42:17.168Z,6.19
2018-04-02T01:43:17.163Z,6.22
2018-04-02T01:44:17.176Z,6.21
2018-04-02T01:45:17.177Z,6.19
2018-04-02T01:46:17.159Z,6.17
2018-04-02T01:47:17.162Z,6.16
2018-04-02T01:48:17.163Z,6.15
2018-04-02T01:49:17.164Z,6.19
2018-04-02T01:50:17.147Z,6.21
2018-04-02T01:51:17.157Z,6.19
2018-04-02T01:52:17.163Z,6.16
2018-04-02T01:53:17.254Z,6.2
2018-04-02T01:54:17.171Z,6.21
2018-04-02T01:55:17.199Z,6.18
2018-04-02T01:56:17.148Z,6.15
2018-04-02T01:57:17.167Z,6.2
2018-04-02T01:58:17.180Z,6.18
2018-04-02T01:59:17.168Z,6.17
2018-04-02T02:00:17.179Z,6.16
2018-04-02T02:01:17.169Z,6.17
2018-04-02T02:02:17.192Z,6.15
2018-04-02T02:03:17.183Z,6.19
2018-04-02T02:04:17.172Z,6.24
2018-04-02T02:05:17.168Z,6.2
2018-04-02T02:06:17.147Z,6.18
2018-04-02T02:07:17.166Z,6.21
2018-04-02T02:08:17.221Z,6.19
2018-04-02T02:09:17.158Z,6.21
2018-04-02T02:10:17.156Z,6.19
2018-04-02T02:11:17.182Z,6.21
2018-04-02T02:12:17.171Z,6.18
2018-04-02T02:13:17.174Z,6.19
2018-04-02T02:14:17.161Z,6.13
2018-04-02T02:15:17.198Z,6.13
2018-04-02T02:16:17.187Z,6.13
2018-04-02T02:17:17.167Z,6.16
2018-04-02T02:18:17.183Z,6.14
2018-04-02T02:19:17.245Z,6.12
2018-04-02T02:20:17.158Z,6.17
2018-04-02T02:21:17.409Z,6.17
2018-04-02T02:22:17.187Z,6.16
2018-04-02T02:23:17.172Z,6.17
2018-04-02T02:24:17.231Z,6.17
2018-04-02T02:25:17.167Z,6.14
2018-04-02T02:26:17.207Z,6.17
2018-04-02T02:27:17.187Z,6.18
2018-04-02T02:28:17.169Z,6.19
2018-04-02T02:29:17.200Z,6.16
2018-04-02T02:30:17.878Z,6.18
2018-04-02T02:31:17.272Z,6.17
2018-04-02T02:32:17.203Z,6.16
2018-04-02T02:33:17.221Z,6.14
2018-04-02T02:34:17.195Z,6.15
2018-04-02T02:35:17.188Z,6.11
2018-04-02T02:36:17.187Z,6.14
2018-04-02T02:37:17.187Z,6.15
2018-04-02T02:38:17.187Z,6.1
2018-04-02T02:39:17.213Z,6.11
2018-04-02T02:40:17.210Z,6.11
2018-04-02T02:41:17.204Z,6.1
2018-04-02T02:42:17.190Z,6.08
2018-04-02T02:43:17.251Z,6.11
2018-04-02T02:44:17.193Z,6.09
2018-04-02T02:45:17.225Z,6.09
2018-04-02T02:46:17.275Z,6.07
2018-04-02T02:47:17.186Z,6.05
2018-04-02T02:48:17.189Z,6.04
2018-04-02T02:49:17.198Z,6.07
2018-04-02T02:50:17.245Z,6.04
2018-04-02T02:51:17.185Z,6.03
2018-04-02T02:52:17.192Z,6.04
2018-04-02T02:53:17.201Z,6
2018-04-02T02:54:17.226Z,6
2018-04-02T02:55:17.337Z,5.99
2018-04-02T02:56:17.274Z,5.97
2018-04-02T02:57:17.190Z,6
2018-04-02T02:58:17.187Z,5.96
2018-04-02T02:59:17.193Z,5.98
2018-04-02T03:00:17.219Z,5.96
2018-04-02T03:01:17.238Z,5.97
2018-04-02T03:02:17.224Z,5.95
2018-04-02T03:03:17.189Z,5.93
2018-04-02T03:04:17.238Z,5.94
2018-04-02T03:05:17.201Z,5.94
2018-04-02T03:06:17.199Z,5.9
2018-04-02T03:07:17.216Z,5.88
2018-04-02T03:08:17.193Z,5.86
2018-04-02T03:09:17.200Z,5.88
2018-04-02T03:10:17.186Z,5.91
2018-04-02T03:11:17.244Z,5.91
2018-04-02T03:12:17.224Z,5.9
2018-04-02T03:13:17.185Z,5.9
2018-04-02T03:14:17.247Z,5.88
2018-04-02T03:15:17.209Z,5.87
2018-04-02T03:16:17.182Z,5.87
2018-04-02T03:17:17.180Z,5.84
2018-04-02T03:18:17.189Z,5.82
2018-04-02T03:19:17.190Z,5.8
2018-04-02T03:20:17.181Z,5.81
2018-04-02T03:21:17.213Z,5.82
2018-04-02T03:22:17.185Z,5.83
2018-04-02T03:23:17.207Z,5.79
2018-04-02T03:24:17.334Z,5.81
2018-04-02T03:25:17.207Z,5.81
2018-04-02T03:26:17.250Z,5.76
2018-04-02T03:27:17.211Z,5.74
2018-04-02T03:28:17.192Z,5.79
2018-04-02T03:29:17.194Z,5.76
2018-04-02T03:30:17.202Z,5.75
2018-04-02T03:31:17.217Z,5.74
2018-04-02T03:32:17.196Z,5.72
2018-04-02T03:33:17.220Z,5.72
2018-04-02T03:34:17.197Z,5.72
2018-04-02T03:35:17.204Z,5.7
2018-04-02T03:36:17.202Z,5.71
2018-04-02T03:37:17.197Z,5.7
2018-04-02T03:38:17.192Z,5.68
2018-04-02T03:39:17.205Z,5.65
2018-04-02T03:40:17.201Z,5.66
2018-04-02T03:41:17.203Z,5.67
2018-04-02T03:42:17.219Z,5.66
2018-04-02T03:43:17.202Z,5.66
2018-04-02T03:44:17.200Z,5.65
2018-04-02T03:45:17.185Z,5.66
2018-04-02T03:46:17.221Z,5.66
2018-04-02T03:47:17.200Z,5.65
2018-04-02T03:48:17.191Z,5.65
2018-04-02T03:49:17.210Z,5.63
2018-04-02T03:50:17.197Z,5.63
2018-04-02T03:51:17.191Z,5.61
2018-04-02T03:52:17.250Z,5.64
2018-04-02T03:53:17.208Z,5.61
2018-04-02T03:54:17.242Z,5.61
2018-04-02T03:55:17.198Z,5.6
2018-04-02T03:56:17.200Z,5.59
2018-04-02T03:57:17.289Z,5.59
2018-04-02T03:58:17.221Z,5.58
2018-04-02T03:59:17.265Z,5.58
2018-04-02T04:00:17.208Z,5.56
2018-04-02T04:01:17.207Z,5.55
2018-04-02T04:02:17.215Z,5.55
2018-04-02T04:03:17.227Z,5.58
2018-04-02T04:04:17.229Z,5.56
2018-04-02T04:05:17.199Z,5.58
2018-04-02T04:06:17.206Z,5.56
2018-04-02T04:07:17.222Z,5.55
2018-04-02T04:08:17.209Z,5.56
2018-04-02T04:09:17.202Z,5.58
2018-04-02T04:10:17.225Z,5.55
2018-04-02T04:11:17.210Z,5.55
2018-04-02T04:12:17.571Z,5.53
2018-04-02T04:13:17.217Z,5.52
2018-04-02T04:14:17.211Z,5.52
2018-04-02T04:15:17.203Z,5.5
2018-04-02T04:16:17.205Z,5.51
2018-04-02T04:17:17.245Z,5.49
2018-04-02T04:18:17.221Z,5.48
2018-04-02T04:19:17.221Z,5.48
2018-04-02T04:20:17.209Z,5.48
2018-04-02T04:21:17.194Z,5.48
2018-04-02T04:22:17.203Z,5.48
2018-04-02T04:23:17.227Z,5.48
2018-04-02T04:24:17.254Z,5.46
2018-04-02T04:25:17.196Z,5.47
2018-04-02T04:26:17.210Z,5.46
2018-04-02T04:27:17.236Z,5.47
2018-04-02T04:28:17.357Z,5.46
2018-04-02T04:29:17.212Z,5.45
2018-04-02T04:30:17.208Z,5.44
2018-04-02T04:31:17.214Z,5.44
2018-04-02T04:32:17.220Z,5.44
2018-04-02T04:33:17.209Z,5.46
2018-04-02T04:34:17.215Z,5.46
2018-04-02T04:35:17.310Z,5.46
2018-04-02T04:36:17.238Z,5.44
2018-04-02T04:37:17.201Z,5.44
2018-04-02T04:38:17.226Z,5.42
2018-04-02T04:39:17.236Z,5.4
2018-04-02T04:40:17.478Z,5.41
2018-04-02T04:41:17.220Z,5.42
2018-04-02T04:42:17.199Z,5.42
2018-04-02T04:43:17.199Z,5.41
2018-04-02T04:44:17.580Z,5.41
2018-04-02T04:45:17.231Z,5.41
2018-04-02T04:46:17.212Z,5.41
2018-04-02T04:47:17.225Z,5.39
2018-04-02T04:48:17.206Z,5.42
2018-04-02T04:49:17.296Z,5.43
2018-04-02T04:50:17.207Z,5.43
2018-04-02T04:51:17.204Z,5.41
2018-04-02T04:52:17.217Z,5.45
2018-04-02T04:53:17.228Z,5.43
2018-04-02T04:54:17.214Z,5.45
2018-04-02T04:55:17.546Z,5.44
2018-04-02T04:56:17.205Z,5.43
2018-04-02T04:57:17.210Z,5.44
2018-04-02T04:58:17.228Z,5.44
2018-04-02T04:59:17.311Z,5.45
2018-04-02T05:00:17.229Z,5.45
2018-04-02T05:01:17.225Z,5.45
2018-04-02T05:02:17.233Z,5.44
2018-04-02T05:03:17.221Z,5.44
2018-04-02T05:04:17.244Z,5.46
2018-04-02T05:05:17.235Z,5.45
2018-04-02T05:06:17.212Z,5.48
2018-04-02T05:07:17.210Z,5.46
2018-04-02T05:08:17.229Z,5.47
2018-04-02T05:09:17.300Z,5.44
2018-04-02T05:10:17.250Z,5.42
2018-04-02T05:11:17.223Z,5.43
2018-04-02T05:12:17.264Z,5.45
2018-04-02T05:13:17.239Z,5.44
2018-04-02T05:14:17.207Z,5.46
2018-04-02T05:15:17.257Z,5.47
2018-04-02T05:16:17.242Z,5.45
2018-04-02T05:17:17.213Z,5.42
2018-04-02T05:18:17.240Z,5.43
2018-04-02T05:19:17.216Z,5.43
2018-04-02T05:20:17.254Z,5.44
2018-04-02T05:21:17.218Z,5.42
2018-04-02T05:22:17.221Z,5.42
2018-04-02T05:23:17.254Z,5.43
2018-04-02T05:24:17.215Z,5.43
2018-04-02T05:25:17.250Z,5.44
2018-04-02T05:26:17.227Z,5.43
2018-04-02T05:27:17.224Z,5.42
2018-04-02T05:28:17.205Z,5.41
2018-04-02T05:29:17.222Z,5.38
2018-04-02T05:30:17.387Z,5.4
2018-04-02T05:31:17.245Z,5.41
2018-04-02T05:32:17.236Z,5.42
2018-04-02T05:33:17.240Z,5.42
2018-04-02T05:34:17.226Z,5.42
2018-04-02T05:35:17.244Z,5.44
2018-04-02T05:36:17.229Z,5.45
2018-04-02T05:37:17.248Z,5.44
2018-04-02T05:38:17.230Z,5.45
2018-04-02T05:39:17.241Z,5.45
2018-04-02T05:40:17.248Z,5.44
2018-04-02T05:41:17.482Z,5.45
2018-04-02T05:42:17.237Z,5.48
2018-04-02T05:43:17.230Z,5.46
2018-04-02T05:44:17.236Z,5.48
2018-04-02T05:45:17.546Z,5.49
2018-04-02T05:46:17.253Z,5.45
2018-04-02T05:47:17.239Z,5.46
2018-04-02T05:48:17.241Z,5.47
2018-04-02T05:49:17.231Z,5.47
2018-04-02T05:50:17.284Z,5.48
2018-04-02T05:51:17.275Z,5.46
2018-04-02T05:52:17.240Z,5.5
2018-04-02T05:53:17.268Z,5.5
2018-04-02T05:54:17.250Z,5.46
2018-04-02T05:55:17.238Z,5.48
2018-04-02T05:56:17.288Z,5.49
2018-04-02T05:57:17.253Z,5.47
2018-04-02T05:58:17.401Z,5.5
2018-04-02T05:59:17.276Z,5.51
2018-04-02T06:00:17.359Z,5.52
2018-04-02T06:01:17.824Z,5.51
2018-04-02T06:02:18.107Z,5.53
2018-04-02T06:03:17.459Z,5.53
2018-04-02T06:04:17.404Z,5.52
2018-04-02T06:05:17.284Z,5.53
2018-04-02T06:06:17.410Z,5.56
2018-04-02T06:07:17.324Z,5.55
2018-04-02T06:08:17.306Z,5.54
2018-04-02T06:09:17.287Z,5.57
2018-04-02T06:10:17.289Z,5.57
2018-04-02T06:11:17.297Z,5.6
2018-04-02T06:12:17.269Z,5.57
2018-04-02T06:13:17.246Z,5.58
2018-04-02T06:14:17.254Z,5.59
2018-04-02T06:15:24.373Z,5.6
2018-04-02T06:16:17.297Z,5.62
2018-04-02T06:17:17.272Z,5.63
2018-04-02T06:18:17.348Z,5.62
2018-04-02T06:19:17.340Z,5.64
2018-04-02T06:20:17.289Z,5.63
2018-04-02T06:21:17.275Z,5.64
2018-04-02T06:22:17.302Z,5.65
2018-04-02T06:23:17.283Z,5.66
2018-04-02T06:24:17.330Z,5.7
2018-04-02T06:25:17.295Z,5.66
2018-04-02T06:26:17.303Z,5.68
2018-04-02T06:27:17.313Z,5.69
2018-04-02T06:28:17.317Z,5.7
2018-04-02T06:29:17.301Z,5.7
2018-04-02T06:30:17.314Z,5.72
2018-04-02T06:31:17.266Z,5.72
2018-04-02T06:32:17.327Z,5.74
2018-04-02T06:33:17.243Z,5.75
2018-04-02T06:34:17.250Z,5.75
2018-04-02T06:35:17.277Z,5.77
2018-04-02T06:36:17.242Z,5.76
2018-04-02T06:37:17.256Z,5.77
2018-04-02T06:38:17.247Z,5.77
2018-04-02T06:39:17.258Z,5.79
2018-04-02T06:40:17.328Z,5.79
2018-04-02T06:41:17.243Z,5.73
2018-04-02T06:42:17.264Z,5.76
2018-04-02T06:43:17.252Z,5.79
2018-04-02T06:44:17.260Z,5.77
2018-04-02T06:45:17.235Z,5.76
2018-04-02T06:46:17.235Z,5.77
2018-04-02T06:47:17.251Z,5.78
2018-04-02T06:48:17.243Z,5.81
2018-04-02T06:49:17.277Z,5.79
2018-04-02T06:50:17.258Z,5.8
2018-04-02T06:51:17.265Z,5.82
2018-04-02T06:52:17.252Z,5.82
2018-04-02T06:53:17.241Z,5.8
2018-04-02T06:54:17.320Z,5.81
2018-04-02T06:55:17.288Z,5.83
2018-04-02T06:56:17.255Z,5.83
2018-04-02T06:57:17.259Z,5.81
2018-04-02T06:58:17.251Z,5.79
2018-04-02T06:59:17.282Z,5.8
2018-04-02T07:00:17.246Z,5.79
2018-04-02T07:01:17.247Z,5.83
2018-04-02T07:02:17.259Z,5.84
2018-04-02T07:03:17.358Z,5.86
2018-04-02T07:04:17.273Z,5.83
2018-04-02T07:05:17.280Z,5.85
2018-04-02T07:06:17.249Z,5.87
2018-04-02T07:07:17.243Z,5.89
2018-04-02T07:08:17.255Z,5.89
2018-04-02T07:09:17.252Z,5.89
2018-04-02T07:10:17.253Z,5.88
2018-04-02T07:11:17.275Z,5.89
2018-04-02T07:12:17.254Z,5.84
2018-04-02T07:13:17.255Z,5.88
2018-04-02T07:14:17.272Z,5.84
2018-04-02T07:15:17.256Z,5.84
2018-04-02T07:16:17.603Z,5.89
2018-04-02T07:17:17.269Z,5.92
2018-04-02T07:18:17.275Z,5.91
2018-04-02T07:19:17.253Z,5.93
2018-04-02T07:20:17.260Z,5.93
2018-04-02T07:21:17.294Z,5.92
2018-04-02T07:22:17.265Z,5.89
2018-04-02T07:23:17.288Z,5.89
2018-04-02T07:24:17.317Z,5.88
2018-04-02T07:25:17.261Z,5.92
2018-04-02T07:26:17.271Z,5.92
2018-04-02T07:27:17.258Z,5.93
2018-04-02T07:28:17.275Z,5.94
2018-04-02T07:29:17.260Z,5.92
2018-04-02T07:30:17.267Z,5.92
2018-04-02T07:31:17.340Z,5.94
2018-04-02T07:32:17.252Z,5.92
2018-04-02T07:33:17.300Z,5.92
2018-04-02T07:34:17.499Z,5.89
2018-04-02T07:35:17.251Z,5.91
2018-04-02T07:36:17.315Z,5.92
2018-04-02T07:37:17.401Z,5.94
2018-04-02T07:38:17.283Z,5.99
2018-04-02T07:39:17.268Z,5.95
2018-04-02T07:40:17.247Z,5.93
2018-04-02T07:41:17.270Z,5.94
2018-04-02T07:42:17.264Z,5.97
2018-04-02T07:43:17.260Z,5.98
2018-04-02T07:44:17.605Z,5.95
2018-04-02T07:45:17.275Z,5.94
2018-04-02T07:46:17.268Z,5.96
2018-04-02T07:47:17.273Z,5.92
2018-04-02T07:48:17.277Z,5.96
2018-04-02T07:49:17.269Z,5.98
2018-04-02T07:50:17.299Z,5.96
2018-04-02T07:51:17.278Z,5.97
2018-04-02T07:52:17.267Z,5.97
2018-04-02T07:53:17.260Z,5.99
2018-04-02T07:54:17.268Z,6.02
2018-04-02T07:55:17.290Z,6.01
2018-04-02T07:56:17.282Z,6.04
2018-04-02T07:57:17.281Z,6.05
2018-04-02T07:58:17.257Z,6.05
2018-04-02T07:59:17.264Z,6.05
2018-04-02T08:00:17.273Z,6.02
2018-04-02T08:01:17.262Z,6.02
2018-04-02T08:02:17.284Z,6.02
2018-04-02T08:03:17.254Z,6.07
2018-04-02T08:04:17.600Z,6.06
2018-04-02T08:05:17.350Z,6.04
2018-04-02T08:06:17.298Z,6.05
2018-04-02T08:07:17.273Z,6.04
2018-04-02T08:08:17.275Z,6.05
2018-04-02T08:09:17.288Z,6.01
2018-04-02T08:10:17.266Z,6.01
2018-04-02T08:11:17.271Z,6.03
2018-04-02T08:12:17.276Z,6.04
2018-04-02T08:13:17.266Z,6.07
2018-04-02T08:14:17.269Z,6.05
2018-04-02T08:15:17.327Z,6.02
2018-04-02T08:16:17.283Z,6.05
2018-04-02T08:17:17.305Z,6.04
2018-04-02T08:18:17.271Z,6.06
2018-04-02T08:19:17.274Z,6.07
2018-04-02T08:20:17.267Z,6.11
2018-04-02T08:21:17.646Z,6.1
2018-04-02T08:22:17.291Z,6.11
2018-04-02T08:23:17.292Z,6.1
2018-04-02T08:24:17.275Z,6.1
2018-04-02T08:25:17.477Z,6.17
2018-04-02T08:26:17.323Z,6.12
2018-04-02T08:27:17.321Z,6.12
2018-04-02T08:28:17.536Z,6.14
2018-04-02T08:29:17.290Z,6.14
2018-04-02T08:30:17.298Z,6.14
2018-04-02T08:31:17.273Z,6.13
2018-04-02T08:32:17.271Z,6.12
2018-04-02T08:33:17.276Z,6.09
2018-04-02T08:34:17.272Z,6.1
2018-04-02T08:35:17.279Z,6.11
2018-04-02T08:36:17.350Z,6.11
2018-04-02T08:37:17.329Z,6.14
2018-04-02T08:38:17.264Z,6.2
2018-04-02T08:39:17.663Z,6.22
2018-04-02T08:40:17.284Z,6.23
2018-04-02T08:41:17.292Z,6.25
2018-04-02T08:42:17.292Z,6.26
2018-04-02T08:43:17.266Z,6.24
2018-04-02T08:44:17.635Z,6.24
2018-04-02T08:45:17.270Z,6.24
2018-04-02T08:46:17.325Z,6.2
2018-04-02T08:47:17.287Z,6.22
2018-04-02T08:48:17.278Z,6.23
2018-04-02T08:49:17.312Z,6.24
2018-04-02T08:50:17.276Z,6.2
2018-04-02T08:51:17.339Z,6.24
2018-04-02T08:52:17.263Z,6.22
2018-04-02T08:53:17.273Z,6.19
2018-04-02T08:54:17.312Z,6.22
2018-04-02T08:55:17.295Z,6.28
2018-04-02T08:56:17.304Z,6.25
2018-04-02T08:57:17.528Z,6.33
2018-04-02T08:58:17.332Z,6.35
2018-04-02T08:59:17.315Z,6.32
2018-04-02T09:00:17.406Z,6.32
2018-04-02T09:01:17.313Z,6.35
2018-04-02T09:02:17.321Z,6.45
2018-04-02T09:03:17.333Z,6.41
2018-04-02T09:04:17.385Z,6.39
2018-04-02T09:05:17.376Z,6.27
2018-04-02T09:06:17.332Z,6.16
2018-04-02T09:07:17.338Z,6.16
2018-04-02T09:08:17.317Z,6.2
2018-04-02T09:09:17.294Z,6.23
2018-04-02T09:10:17.310Z,6.25
2018-04-02T09:11:17.333Z,6.3
2018-04-02T09:12:17.340Z,6.29
2018-04-02T09:13:17.640Z,6.19
2018-04-02T09:14:17.365Z,6.24
2018-04-02T09:15:17.314Z,6.19
2018-04-02T09:16:17.315Z,6.21
2018-04-02T09:17:17.356Z,6.27
2018-04-02T09:18:17.331Z,6.22
2018-04-02T09:19:17.315Z,6.24
2018-04-02T09:20:17.648Z,6.2
2018-04-02T09:21:17.320Z,6.33
2018-04-02T09:22:17.320Z,6.28
2018-04-02T09:23:17.341Z,6.2
2018-04-02T09:24:17.319Z,6.19
2018-04-02T09:25:17.338Z,6.24
2018-04-02T09:26:18.762Z,6.18
2018-04-02T09:27:17.299Z,6.09
2018-04-02T09:28:17.306Z,6.2
2018-04-02T09:29:17.333Z,6.15
2018-04-02T09:30:17.281Z,6.17
2018-04-02T09:31:17.336Z,6.08
2018-04-02T09:32:17.310Z,6.04
2018-04-02T09:33:17.324Z,6.09
2018-04-02T09:34:17.288Z,6.13
2018-04-02T09:35:17.282Z,6.19
2018-04-02T09:36:17.302Z,6.22
2018-04-02T09:37:17.384Z,5.98
2018-04-02T09:38:17.354Z,6.04
2018-04-02T09:39:17.321Z,6.05
2018-04-02T09:40:17.323Z,6.14
2018-04-02T09:41:17.331Z,6
2018-04-02T09:42:17.341Z,6.04
2018-04-02T09:43:17.310Z,6.08
2018-04-02T09:44:17.322Z,6.01
2018-04-02T09:45:17.324Z,5.98
2018-04-02T09:46:17.375Z,5.93
2018-04-02T09:47:17.345Z,6
2018-04-02T09:48:17.341Z,6.07
2018-04-02T09:49:17.412Z,5.99
2018-04-02T09:50:17.291Z,6.12
2018-04-02T09:51:17.327Z,6.01
2018-04-02T09:52:17.306Z,6
2018-04-02T09:53:17.371Z,6.07
2018-04-02T09:54:17.652Z,5.88
2018-04-02T09:55:17.330Z,5.85
2018-04-02T09:56:17.353Z,5.91
2018-04-02T09:57:17.376Z,5.98
2018-04-02T09:58:17.322Z,5.97
2018-04-02T09:59:17.775Z,5.83
2018-04-02T10:00:17.369Z,5.87
2018-04-02T10:01:17.332Z,5.88
2018-04-02T10:02:17.336Z,5.77
2018-04-02T10:03:17.354Z,5.89
2018-04-02T10:04:17.371Z,5.99
2018-04-02T10:05:17.418Z,5.98
2018-04-02T10:06:17.383Z,5.72
2018-04-02T10:07:17.372Z,5.76
2018-04-02T10:08:17.352Z,5.87
2018-04-02T10:09:18.376Z,5.9
2018-04-02T10:10:19.032Z,5.98
2018-04-02T10:11:18.695Z,5.84
2018-04-02T10:12:17.456Z,5.79
2018-04-02T10:13:17.317Z,5.87
2018-04-02T10:14:17.329Z,6
2018-04-02T10:15:17.316Z,5.81
2018-04-02T10:16:17.306Z,6
2018-04-02T10:17:17.323Z,6.05
2018-04-02T10:18:17.300Z,5.98
2018-04-02T10:19:17.319Z,6.03
2018-04-02T10:20:17.327Z,5.94
2018-04-02T10:21:17.336Z,5.7
2018-04-02T10:22:17.296Z,5.64
2018-04-02T10:23:17.308Z,5.8
2018-04-02T10:24:17.359Z,5.43
2018-04-02T10:25:17.298Z,5.3
2018-04-02T10:26:17.629Z,5.32
2018-04-02T10:27:17.298Z,5.45
2018-04-02T10:28:17.323Z,5.39
2018-04-02T10:29:17.607Z,5.5
2018-04-02T10:30:17.338Z,5.62
2018-04-02T10:31:17.401Z,5.62
2018-04-02T10:32:17.345Z,5.48
2018-04-02T10:33:17.318Z,5.49
2018-04-02T10:34:17.300Z,5.43
2018-04-02T10:35:17.337Z,5.42
2018-04-02T10:36:17.352Z,5.38
2018-04-02T10:37:17.579Z,5.04
2018-04-02T10:38:17.366Z,5.3
2018-04-02T10:39:17.320Z,5.37
2018-04-02T10:40:17.325Z,5.46
2018-04-02T10:41:17.313Z,5.36
2018-04-02T10:42:17.304Z,5.4
2018-04-02T10:43:17.822Z,5.32
2018-04-02T10:44:17.346Z,5.04
2018-04-02T10:45:17.344Z,5.27
2018-04-02T10:46:17.334Z,5.32
2018-04-02T10:47:17.328Z,5.33
2018-04-02T10:48:17.369Z,5.17
2018-04-02T10:49:17.320Z,5.2
2018-04-02T10:50:17.318Z,5.4
2018-04-02T10:51:17.314Z,5.51
2018-04-02T10:52:17.335Z,5.59
2018-04-02T10:53:17.342Z,5.37
2018-04-02T10:54:17.326Z,5.43
2018-04-02T10:55:17.336Z,5.41
2018-04-02T10:56:17.311Z,5.41
2018-04-02T10:57:17.346Z,5.41
2018-04-02T10:58:17.341Z,5.53
2018-04-02T10:59:17.344Z,5.59
2018-04-02T11:00:17.375Z,5.39
2018-04-02T11:01:17.328Z,5.45
2018-04-02T11:02:17.309Z,5.46
2018-04-02T11:03:17.643Z,5.57
2018-04-02T11:04:17.324Z,5.54
2018-04-02T11:05:17.324Z,5.65
2018-04-02T11:06:17.733Z,5.52
2018-04-02T11:07:17.337Z,5.42
2018-04-02T11:08:17.343Z,5.39
2018-04-02T11:09:17.362Z,5.56
2018-04-02T11:10:17.347Z,5.51
2018-04-02T11:11:17.336Z,5.42
2018-04-02T11:12:17.324Z,5.58
2018-04-02T11:13:17.337Z,5.24
2018-04-02T11:14:17.447Z,5.39
2018-04-02T11:15:17.330Z,5.42
2018-04-02T11:16:17.348Z,5.52
2018-04-02T11:17:17.319Z,5.36
2018-04-02T11:18:17.347Z,5.35
2018-04-02T11:19:17.324Z,5.34
2018-04-02T11:20:17.332Z,5.39
2018-04-02T11:21:17.365Z,5.39
2018-04-02T11:22:17.344Z,5.47
2018-04-02T11:23:17.377Z,5.38
2018-04-02T11:24:17.323Z,5.39
2018-04-02T11:25:17.332Z,5.39
2018-04-02T11:26:17.319Z,5.27
2018-04-02T11:27:17.393Z,5.24
2018-04-02T11:28:17.318Z,5.31
2018-04-02T11:29:17.322Z,5.39
2018-04-02T11:30:17.348Z,5.33
2018-04-02T11:31:17.353Z,5.27
2018-04-02T11:32:17.330Z,5.33
2018-04-02T11:33:17.336Z,5.37
2018-04-02T11:34:17.410Z,5.46
2018-04-02T11:35:17.344Z,5.53
2018-04-02T11:36:17.344Z,5.38
2018-04-02T11:37:17.402Z,5.59
2018-04-02T11:38:17.334Z,5.46
2018-04-02T11:39:17.343Z,5.49
2018-04-02T11:40:17.352Z,5.49
2018-04-02T11:41:17.369Z,5.22
2018-04-02T11:42:17.355Z,5.51
2018-04-02T11:43:17.338Z,5.57
2018-04-02T11:44:17.341Z,5.53
2018-04-02T11:45:17.421Z,5.41
2018-04-02T11:46:17.326Z,5.28
2018-04-02T11:47:17.381Z,5.55
2018-04-02T11:48:17.342Z,5.59
2018-04-02T11:49:17.374Z,5.42
2018-04-02T11:50:17.358Z,5.32
2018-04-02T11:51:17.362Z,5.35
2018-04-02T11:52:17.363Z,5.26
2018-04-02T11:53:17.350Z,5.32
2018-04-02T11:54:17.364Z,5.3
2018-04-02T11:55:17.341Z,5.42
2018-04-02T11:56:17.346Z,5.32
2018-04-02T11:57:17.931Z,5.22
2018-04-02T11:58:17.362Z,5.4
2018-04-02T11:59:17.360Z,5.46
2018-04-02T12:00:17.351Z,5.17
2018-04-02T12:01:17.389Z,5.32
2018-04-02T12:02:17.385Z,5.42
2018-04-02T12:03:17.363Z,5.51
2018-04-02T12:04:17.363Z,5.48
2018-04-02T12:05:17.392Z,5.5
2018-04-02T12:06:17.352Z,5.48
2018-04-02T12:07:17.665Z,5.28
2018-04-02T12:08:17.377Z,5.14
2018-04-02T12:09:17.574Z,5.03
2018-04-02T12:10:17.359Z,5.19
2018-04-02T12:11:17.361Z,5.34
2018-04-02T12:12:17.383Z,5.31
2018-04-02T12:13:17.368Z,5.14
2018-04-02T12:14:17.375Z,4.92
2018-04-02T12:15:17.383Z,5.03
2018-04-02T12:16:17.434Z,5.14
2018-04-02T12:17:17.392Z,5.18
2018-04-02T12:18:17.373Z,5.07
2018-04-02T12:19:17.373Z,4.85
2018-04-02T12:20:17.487Z,4.99
2018-04-02T12:21:17.378Z,5.13
2018-04-02T12:22:17.355Z,5.18
2018-04-02T12:23:17.371Z,4.86
2018-04-02T12:24:17.364Z,4.96
2018-04-02T12:25:17.385Z,5.08
2018-04-02T12:26:17.383Z,5.1
2018-04-02T12:27:17.367Z,5.15
2018-04-02T12:28:17.399Z,5.21
2018-04-02T12:29:17.378Z,5.29
2018-04-02T12:30:17.391Z,5.04
2018-04-02T12:31:17.383Z,5.08
2018-04-02T12:32:17.587Z,5.15
2018-04-02T12:33:17.398Z,5.34
2018-04-02T12:34:17.375Z,5.26
2018-04-02T12:35:17.370Z,5.06
2018-04-02T12:36:17.391Z,5.25
2018-04-02T12:37:17.373Z,5.33
2018-04-02T12:38:17.377Z,5.26
2018-04-02T12:39:17.369Z,5.37
2018-04-02T12:40:17.366Z,5.19
2018-04-02T12:41:17.377Z,5.12
2018-04-02T12:42:17.358Z,5.01
2018-04-02T12:43:17.605Z,4.98
2018-04-02T12:44:18.705Z,5.03
2018-04-02T12:45:17.462Z,5.07
2018-04-02T12:46:17.416Z,4.91
2018-04-02T12:47:17.497Z,4.92
2018-04-02T12:48:17.431Z,5.08
2018-04-02T12:49:17.384Z,4.99
2018-04-02T12:50:17.404Z,5
2018-04-02T12:51:17.388Z,5.04
2018-04-02T12:52:17.386Z,4.91
2018-04-02T12:53:17.394Z,5.33
2018-04-02T12:54:17.390Z,4.73
2018-04-02T12:55:17.378Z,5.07
2018-04-02T12:56:17.384Z,4.87
2018-04-02T12:57:17.391Z,4.94
2018-04-02T12:58:17.391Z,4.65
2018-04-02T12:59:17.419Z,4.74
2018-04-02T13:00:17.409Z,4.81
2018-04-02T13:01:17.398Z,4.81
2018-04-02T13:02:17.417Z,5.09
2018-04-02T13:03:17.380Z,4.81
2018-04-02T13:04:17.447Z,4.88
2018-04-02T13:05:17.399Z,4.76
2018-04-02T13:06:17.405Z,4.86
2018-04-02T13:07:17.445Z,5.06
2018-04-02T13:08:17.381Z,4.92
2018-04-02T13:09:17.408Z,4.94
2018-04-02T13:10:17.426Z,4.78
2018-04-02T13:11:17.424Z,5.17
2018-04-02T13:12:17.408Z,5.12
2018-04-02T13:13:17.411Z,4.9
2018-04-02T13:14:17.425Z,4.94
2018-04-02T13:15:17.415Z,5
2018-04-02T13:16:17.396Z,4.98
2018-04-02T13:17:17.398Z,4.91
2018-04-02T13:18:17.482Z,4.85
2018-04-02T13:19:17.734Z,5.08
2018-04-02T13:20:17.393Z,4.91
2018-04-02T13:21:17.427Z,4.78